Mendota Heights, Minnesota
Current Conditions -  °F | °C
As of 4:57 AM on Sunday 23 Nov 2014 (Local Time) from KMSP Reporting Station
Overcast Overcast  
Wind Chill: 50°   Ceiling: 1400
Heat Index: 50°   Visibility: 7mi
Dew Point: 48°   Wind: 5mph
Humidity: 93%   Direction: 200°SSW
Pressure: 29.44"   Gusts: NA
Location:  44.8725°N, 93.1463°W
Report Text: KMSP 231057Z 20004KT 7SM BKN014 BKN020 OVC025 10/09 A2944 RMK AO2 T01000089
Loading
Personal Weather Stations






























Interactive Weather Map New forecast layout! Learn more

10-Day Weather Forecast

Advertisements
Track Severe Weather on mobile